Saltcoats, Canada
Current Conditions -  °F | °C
As of 10:00 PM on Thursday 27 Nov 2014 (Local Time) from CYQV Reporting Station
Overcast Overcast  
Wind Chill: -3°   Ceiling: 2000
Heat Index:   Visibility: 9mi
Dew Point:   Wind: 6mph
Humidity: 85%   Direction: 80°E
Pressure: 30.02"   Gusts: NA
Location:  51.04°N, 102.16°W
Report Text: CYQV 280400Z AUTO 08005KT 9SM OVC020 M14/M16 A3002 RMK SLP211
Loading
Personal Weather Stations






























Interactive Weather Map New forecast layout! Learn more

10-Day Weather Forecast

Advertisements
Track Severe Weather on mobile